aviador You're here:

LFKJ Decoded Metar

AJACCIO in CORSE ISL.
Report Time2017-08-24 06:30:00
UTC Time2017-08-24 06:59:50
Flight Rules vfr VFR
Wind050° at 05 kt
W.Decomp.*RWY 02: 4.4 kt HW 2.4 kt RCW
W.Rank050° ranks 2
Current wind is below 050° avg. (5.2)
Visibility9999 m
Phenomena:N/A
Clouds:N/A
Expected CloudBase > 4,000 ft AGL from Temp-Dew spread
CeilingNone
Temp21°C (ISA +6)
Dew Point11°C (53% RH)
AAT19.5°C
QNH1019 hPa
Density Alt712 ft
Elevation30 ft
Report Wrong Elevation
Raw Report
LFKJ 240630Z 05005KT CAVOK 21/11 Q1019 NOSIG=

Extra information for LFKJ:More info

Metar Taf Metar & Taf Last 4 Metars F.Rules Stats Wind Profile Meteogram Temp Stats Airport Information Weather charts Add Link Nearby VenuesMetar ALERT Operation Metar Decoded Social comments